sensor_id;sensor_type;location;lat;lon;timestamp;P1;durP1;ratioP1;P2;durP2;ratioP2
54977;SDS011;40873;47.522;19.106;2023-06-26T00:01:32;8.73;;;6.00;;
54977;SDS011;40873;47.522;19.106;2023-06-26T00:04:00;11.63;;;6.47;;
54977;SDS011;40873;47.522;19.106;2023-06-26T00:06:28;9.85;;;6.63;;
54977;SDS011;40873;47.522;19.106;2023-06-26T00:08:55;10.75;;;5.80;;
54977;SDS011;40873;47.522;19.106;2023-06-26T00:11:23;9.20;;;6.28;;
54977;SDS011;40873;47.522;19.106;2023-06-26T00:13:51;10.70;;;6.03;;
54977;SDS011;40873;47.522;19.106;2023-06-26T00:16:18;9.82;;;6.53;;
54977;SDS011;40873;47.522;19.106;2023-06-26T00:18:45;9.18;;;6.53;;
54977;SDS011;40873;47.522;19.106;2023-06-26T00:21:12;10.07;;;5.90;;
54977;SDS011;40873;47.522;19.106;2023-06-26T00:23:39;8.73;;;6.40;;
54977;SDS011;40873;47.522;19.106;2023-06-26T00:26:06;10.30;;;6.30;;
54977;SDS011;40873;47.522;19.106;2023-06-26T00:28:33;10.77;;;7.85;;
54977;SDS011;40873;47.522;19.106;2023-06-26T00:31:00;11.50;;;6.70;;
54977;SDS011;40873;47.522;19.106;2023-06-26T00:33:27;9.75;;;6.55;;
54977;SDS011;40873;47.522;19.106;2023-06-26T00:35:54;10.27;;;6.65;;
54977;SDS011;40873;47.522;19.106;2023-06-26T00:38:21;9.77;;;6.80;;
54977;SDS011;40873;47.522;19.106;2023-06-26T00:40:48;11.07;;;6.80;;
54977;SDS011;40873;47.522;19.106;2023-06-26T00:43:16;10.90;;;6.15;;
54977;SDS011;40873;47.522;19.106;2023-06-26T00:45:42;10.70;;;7.20;;
54977;SDS011;40873;47.522;19.106;2023-06-26T00:48:10;14.20;;;6.53;;
54977;SDS011;40873;47.522;19.106;2023-06-26T00:50:41;9.38;;;6.47;;
54977;SDS011;40873;47.522;19.106;2023-06-26T00:53:09;10.02;;;6.60;;
54977;SDS011;40873;47.522;19.106;2023-06-26T00:55:38;11.55;;;6.50;;
54977;SDS011;40873;47.522;19.106;2023-06-26T00:58:05;10.95;;;6.60;;
54977;SDS011;40873;47.522;19.106;2023-06-26T01:00:32;8.18;;;6.38;;
54977;SDS011;40873;47.522;19.106;2023-06-26T01:02:59;10.98;;;6.72;;
54977;SDS011;40873;47.522;19.106;2023-06-26T01:05:28;11.55;;;6.07;;
54977;SDS011;40873;47.522;19.106;2023-06-26T01:07:57;10.25;;;6.47;;
54977;SDS011;40873;47.522;19.106;2023-06-26T01:10:25;11.25;;;6.97;;
54977;SDS011;40873;47.522;19.106;2023-06-26T01:13:01;9.88;;;6.45;;
54977;SDS011;40873;47.522;19.106;2023-06-26T01:15:29;8.35;;;6.13;;
54977;SDS011;40873;47.522;19.106;2023-06-26T01:17:56;10.60;;;6.97;;
54977;SDS011;40873;47.522;19.106;2023-06-26T01:20:38;9.13;;;6.28;;
54977;SDS011;40873;47.522;19.106;2023-06-26T01:23:15;8.98;;;5.97;;
54977;SDS011;40873;47.522;19.106;2023-06-26T01:26:07;11.38;;;6.53;;
54977;SDS011;40873;47.522;19.106;2023-06-26T01:28:39;9.38;;;6.30;;
54977;SDS011;40873;47.522;19.106;2023-06-26T01:31:08;11.10;;;6.88;;
54977;SDS011;40873;47.522;19.106;2023-06-26T01:33:37;8.45;;;6.32;;
54977;SDS011;40873;47.522;19.106;2023-06-26T01:36:06;8.07;;;6.20;;
54977;SDS011;40873;47.522;19.106;2023-06-26T01:38:34;8.60;;;6.05;;
54977;SDS011;40873;47.522;19.106;2023-06-26T01:41:01;8.43;;;5.78;;
54977;SDS011;40873;47.522;19.106;2023-06-26T01:46:33;9.13;;;6.45;;
54977;SDS011;40873;47.522;19.106;2023-06-26T01:49:31;9.02;;;5.65;;
54977;SDS011;40873;47.522;19.106;2023-06-26T01:52:14;8.85;;;5.53;;
54977;SDS011;40873;47.522;19.106;2023-06-26T01:55:05;10.40;;;6.57;;
54977;SDS011;40873;47.522;19.106;2023-06-26T01:57:43;9.93;;;6.25;;
54977;SDS011;40873;47.522;19.106;2023-06-26T02:00:17;11.80;;;6.75;;
54977;SDS011;40873;47.522;19.106;2023-06-26T02:02:45;9.05;;;6.00;;
54977;SDS011;40873;47.522;19.106;2023-06-26T02:05:13;9.82;;;5.88;;
54977;SDS011;40873;47.522;19.106;2023-06-26T02:07:41;11.88;;;6.97;;
54977;SDS011;40873;47.522;19.106;2023-06-26T02:10:08;9.57;;;6.35;;
54977;SDS011;40873;47.522;19.106;2023-06-26T02:12:36;9.18;;;5.93;;
54977;SDS011;40873;47.522;19.106;2023-06-26T02:15:04;9.32;;;6.03;;
54977;SDS011;40873;47.522;19.106;2023-06-26T02:17:31;9.95;;;7.07;;
54977;SDS011;40873;47.522;19.106;2023-06-26T02:19:58;10.25;;;6.70;;
54977;SDS011;40873;47.522;19.106;2023-06-26T02:22:25;9.82;;;6.63;;
54977;SDS011;40873;47.522;19.106;2023-06-26T02:24:55;10.27;;;6.90;;
54977;SDS011;40873;47.522;19.106;2023-06-26T02:27:22;11.07;;;6.20;;
54977;SDS011;40873;47.522;19.106;2023-06-26T02:29:49;10.32;;;5.75;;
54977;SDS011;40873;47.522;19.106;2023-06-26T02:32:16;9.50;;;6.63;;
54977;SDS011;40873;47.522;19.106;2023-06-26T02:34:43;8.95;;;6.28;;
54977;SDS011;40873;47.522;19.106;2023-06-26T02:37:10;10.80;;;6.47;;
54977;SDS011;40873;47.522;19.106;2023-06-26T02:39:37;9.25;;;6.00;;
54977;SDS011;40873;47.522;19.106;2023-06-26T02:42:04;11.15;;;7.22;;
54977;SDS011;40873;47.522;19.106;2023-06-26T02:44:32;11.57;;;6.40;;
54977;SDS011;40873;47.522;19.106;2023-06-26T02:46:59;9.73;;;6.53;;
54977;SDS011;40873;47.522;19.106;2023-06-26T02:49:26;13.48;;;6.50;;
54977;SDS011;40873;47.522;19.106;2023-06-26T02:51:53;10.52;;;6.25;;
54977;SDS011;40873;47.522;19.106;2023-06-26T02:54:20;12.32;;;7.22;;
54977;SDS011;40873;47.522;19.106;2023-06-26T02:56:47;14.93;;;8.57;;
54977;SDS011;40873;47.522;19.106;2023-06-26T02:59:15;10.35;;;6.85;;
54977;SDS011;40873;47.522;19.106;2023-06-26T03:01:42;9.80;;;6.35;;
54977;SDS011;40873;47.522;19.106;2023-06-26T03:04:09;10.10;;;6.72;;
54977;SDS011;40873;47.522;19.106;2023-06-26T03:06:37;12.43;;;6.63;;
54977;SDS011;40873;47.522;19.106;2023-06-26T03:09:04;9.55;;;6.68;;
54977;SDS011;40873;47.522;19.106;2023-06-26T03:11:31;9.10;;;6.70;;
54977;SDS011;40873;47.522;19.106;2023-06-26T03:13:58;12.88;;;8.00;;
54977;SDS011;40873;47.522;19.106;2023-06-26T03:16:25;14.30;;;8.85;;
54977;SDS011;40873;47.522;19.106;2023-06-26T03:18:52;11.70;;;7.75;;
54977;SDS011;40873;47.522;19.106;2023-06-26T03:21:19;13.45;;;9.07;;
54977;SDS011;40873;47.522;19.106;2023-06-26T03:23:46;11.10;;;7.40;;
54977;SDS011;40873;47.522;19.106;2023-06-26T03:26:13;12.95;;;7.50;;
54977;SDS011;40873;47.522;19.106;2023-06-26T03:28:41;12.93;;;7.53;;
54977;SDS011;40873;47.522;19.106;2023-06-26T03:31:11;12.63;;;7.40;;
54977;SDS011;40873;47.522;19.106;2023-06-26T03:33:38;11.88;;;6.90;;
54977;SDS011;40873;47.522;19.106;2023-06-26T03:36:05;8.95;;;6.85;;
54977;SDS011;40873;47.522;19.106;2023-06-26T03:38:33;8.80;;;6.70;;
54977;SDS011;40873;47.522;19.106;2023-06-26T03:41:00;12.60;;;6.38;;
54977;SDS011;40873;47.522;19.106;2023-06-26T03:43:27;9.13;;;6.13;;
54977;SDS011;40873;47.522;19.106;2023-06-26T03:45:54;10.40;;;6.55;;
54977;SDS011;40873;47.522;19.106;2023-06-26T03:48:21;10.95;;;6.90;;
54977;SDS011;40873;47.522;19.106;2023-06-26T03:50:49;11.00;;;6.50;;
54977;SDS011;40873;47.522;19.106;2023-06-26T03:53:16;10.25;;;6.25;;
54977;SDS011;40873;47.522;19.106;2023-06-26T03:55:43;10.20;;;7.05;;
54977;SDS011;40873;47.522;19.106;2023-06-26T03:58:10;10.88;;;7.43;;
54977;SDS011;40873;47.522;19.106;2023-06-26T04:00:37;10.40;;;6.80;;
54977;SDS011;40873;47.522;19.106;2023-06-26T04:03:04;13.55;;;6.80;;
54977;SDS011;40873;47.522;19.106;2023-06-26T04:05:31;10.88;;;6.13;;
54977;SDS011;40873;47.522;19.106;2023-06-26T04:07:58;11.52;;;6.88;;
54977;SDS011;40873;47.522;19.106;2023-06-26T04:10:25;12.07;;;7.20;;
54977;SDS011;40873;47.522;19.106;2023-06-26T04:12:52;11.65;;;7.18;;
54977;SDS011;40873;47.522;19.106;2023-06-26T04:15:19;8.38;;;6.25;;
54977;SDS011;40873;47.522;19.106;2023-06-26T04:17:47;10.07;;;7.18;;
54977;SDS011;40873;47.522;19.106;2023-06-26T04:20:14;9.50;;;6.63;;
54977;SDS011;40873;47.522;19.106;2023-06-26T04:22:41;11.68;;;7.00;;
54977;SDS011;40873;47.522;19.106;2023-06-26T04:25:08;9.60;;;6.45;;
54977;SDS011;40873;47.522;19.106;2023-06-26T04:27:36;12.32;;;7.15;;
54977;SDS011;40873;47.522;19.106;2023-06-26T04:30:06;12.10;;;7.32;;
54977;SDS011;40873;47.522;19.106;2023-06-26T04:32:34;13.50;;;7.60;;
54977;SDS011;40873;47.522;19.106;2023-06-26T04:35:01;9.00;;;6.63;;
54977;SDS011;40873;47.522;19.106;2023-06-26T04:37:29;10.10;;;7.20;;
54977;SDS011;40873;47.522;19.106;2023-06-26T04:39:56;14.93;;;7.90;;
54977;SDS011;40873;47.522;19.106;2023-06-26T04:42:23;10.63;;;6.47;;
54977;SDS011;40873;47.522;19.106;2023-06-26T04:44:50;10.35;;;7.15;;
54977;SDS011;40873;47.522;19.106;2023-06-26T04:47:18;11.50;;;7.25;;
54977;SDS011;40873;47.522;19.106;2023-06-26T04:49:45;10.10;;;6.50;;
54977;SDS011;40873;47.522;19.106;2023-06-26T04:52:13;9.63;;;6.70;;
54977;SDS011;40873;47.522;19.106;2023-06-26T04:54:40;10.32;;;6.40;;
54977;SDS011;40873;47.522;19.106;2023-06-26T04:57:07;9.73;;;6.32;;
54977;SDS011;40873;47.522;19.106;2023-06-26T04:59:35;12.73;;;7.45;;
54977;SDS011;40873;47.522;19.106;2023-06-26T05:02:02;9.75;;;6.28;;
54977;SDS011;40873;47.522;19.106;2023-06-26T05:04:31;8.98;;;6.65;;
54977;SDS011;40873;47.522;19.106;2023-06-26T05:06:59;10.10;;;6.60;;
54977;SDS011;40873;47.522;19.106;2023-06-26T05:09:26;13.43;;;6.82;;
54977;SDS011;40873;47.522;19.106;2023-06-26T05:11:53;11.18;;;6.50;;
54977;SDS011;40873;47.522;19.106;2023-06-26T05:14:20;10.45;;;5.97;;
54977;SDS011;40873;47.522;19.106;2023-06-26T05:16:51;10.57;;;6.97;;
54977;SDS011;40873;47.522;19.106;2023-06-26T05:19:17;11.20;;;7.75;;
54977;SDS011;40873;47.522;19.106;2023-06-26T05:21:45;12.35;;;7.43;;
54977;SDS011;40873;47.522;19.106;2023-06-26T05:24:12;12.85;;;7.78;;
54977;SDS011;40873;47.522;19.106;2023-06-26T05:26:41;10.70;;;7.88;;
54977;SDS011;40873;47.522;19.106;2023-06-26T05:29:08;22.00;;;8.82;;
54977;SDS011;40873;47.522;19.106;2023-06-26T05:31:35;12.27;;;7.45;;
54977;SDS011;40873;47.522;19.106;2023-06-26T05:34:07;13.13;;;7.63;;
54977;SDS011;40873;47.522;19.106;2023-06-26T05:36:37;10.43;;;7.93;;
54977;SDS011;40873;47.522;19.106;2023-06-26T05:39:05;9.65;;;6.72;;
54977;SDS011;40873;47.522;19.106;2023-06-26T05:41:33;14.98;;;7.45;;
54977;SDS011;40873;47.522;19.106;2023-06-26T05:44:00;10.65;;;6.85;;
54977;SDS011;40873;47.522;19.106;2023-06-26T05:46:27;12.57;;;7.38;;
54977;SDS011;40873;47.522;19.106;2023-06-26T05:48:54;11.38;;;7.50;;
54977;SDS011;40873;47.522;19.106;2023-06-26T05:51:21;10.77;;;7.47;;
54977;SDS011;40873;47.522;19.106;2023-06-26T05:53:49;9.65;;;6.80;;
54977;SDS011;40873;47.522;19.106;2023-06-26T05:56:16;9.32;;;6.60;;
54977;SDS011;40873;47.522;19.106;2023-06-26T05:58:45;9.98;;;7.22;;
54977;SDS011;40873;47.522;19.106;2023-06-26T06:01:13;8.68;;;6.05;;
54977;SDS011;40873;47.522;19.106;2023-06-26T06:03:40;10.05;;;5.70;;
54977;SDS011;40873;47.522;19.106;2023-06-26T06:06:07;7.50;;;5.57;;
54977;SDS011;40873;47.522;19.106;2023-06-26T06:08:34;10.77;;;5.72;;
54977;SDS011;40873;47.522;19.106;2023-06-26T06:11:01;10.32;;;6.30;;
54977;SDS011;40873;47.522;19.106;2023-06-26T06:13:29;9.50;;;6.63;;
54977;SDS011;40873;47.522;19.106;2023-06-26T06:15:56;10.05;;;5.68;;
54977;SDS011;40873;47.522;19.106;2023-06-26T06:18:23;20.52;;;7.47;;
54977;SDS011;40873;47.522;19.106;2023-06-26T06:20:50;12.00;;;6.22;;
54977;SDS011;40873;47.522;19.106;2023-06-26T06:23:17;10.25;;;6.15;;
54977;SDS011;40873;47.522;19.106;2023-06-26T06:25:44;10.63;;;5.82;;
54977;SDS011;40873;47.522;19.106;2023-06-26T06:28:11;8.23;;;5.60;;
54977;SDS011;40873;47.522;19.106;2023-06-26T06:30:38;8.73;;;5.15;;
54977;SDS011;40873;47.522;19.106;2023-06-26T06:33:11;9.57;;;5.32;;
54977;SDS011;40873;47.522;19.106;2023-06-26T06:35:39;13.98;;;5.63;;
54977;SDS011;40873;47.522;19.106;2023-06-26T06:38:06;12.10;;;5.82;;
54977;SDS011;40873;47.522;19.106;2023-06-26T06:40:33;9.07;;;5.20;;
54977;SDS011;40873;47.522;19.106;2023-06-26T06:43:00;8.18;;;5.88;;
54977;SDS011;40873;47.522;19.106;2023-06-26T06:45:27;8.18;;;5.45;;
54977;SDS011;40873;47.522;19.106;2023-06-26T06:47:54;8.25;;;5.18;;
54977;SDS011;40873;47.522;19.106;2023-06-26T06:50:21;8.93;;;5.40;;
54977;SDS011;40873;47.522;19.106;2023-06-26T06:52:48;9.48;;;5.40;;
54977;SDS011;40873;47.522;19.106;2023-06-26T06:55:15;8.52;;;5.22;;
54977;SDS011;40873;47.522;19.106;2023-06-26T06:57:42;13.20;;;5.97;;
54977;SDS011;40873;47.522;19.106;2023-06-26T07:00:10;11.65;;;5.25;;
54977;SDS011;40873;47.522;19.106;2023-06-26T07:02:39;8.75;;;6.00;;
54977;SDS011;40873;47.522;19.106;2023-06-26T07:05:07;8.15;;;5.40;;
54977;SDS011;40873;47.522;19.106;2023-06-26T07:07:36;13.70;;;5.80;;
54977;SDS011;40873;47.522;19.106;2023-06-26T07:10:05;10.00;;;6.72;;
54977;SDS011;40873;47.522;19.106;2023-06-26T07:12:32;7.45;;;5.57;;
54977;SDS011;40873;47.522;19.106;2023-06-26T07:15:00;8.27;;;5.20;;
54977;SDS011;40873;47.522;19.106;2023-06-26T07:17:29;7.53;;;5.18;;
54977;SDS011;40873;47.522;19.106;2023-06-26T07:19:56;10.38;;;5.68;;
54977;SDS011;40873;47.522;19.106;2023-06-26T07:22:23;10.75;;;5.30;;
54977;SDS011;40873;47.522;19.106;2023-06-26T07:24:50;7.95;;;5.00;;
54977;SDS011;40873;47.522;19.106;2023-06-26T07:27:18;15.15;;;4.93;;
54977;SDS011;40873;47.522;19.106;2023-06-26T07:29:45;10.27;;;5.18;;
54977;SDS011;40873;47.522;19.106;2023-06-26T07:32:13;7.35;;;5.35;;
54977;SDS011;40873;47.522;19.106;2023-06-26T07:34:41;6.82;;;4.82;;
54977;SDS011;40873;47.522;19.106;2023-06-26T07:37:08;10.88;;;4.72;;
54977;SDS011;40873;47.522;19.106;2023-06-26T07:39:35;7.63;;;5.28;;
54977;SDS011;40873;47.522;19.106;2023-06-26T07:42:02;7.13;;;4.57;;
54977;SDS011;40873;47.522;19.106;2023-06-26T07:44:30;9.82;;;5.18;;
54977;SDS011;40873;47.522;19.106;2023-06-26T07:46:56;7.65;;;5.43;;
54977;SDS011;40873;47.522;19.106;2023-06-26T07:49:24;7.65;;;5.47;;
54977;SDS011;40873;47.522;19.106;2023-06-26T07:51:51;6.35;;;4.43;;
54977;SDS011;40873;47.522;19.106;2023-06-26T07:54:18;6.80;;;5.18;;
54977;SDS011;40873;47.522;19.106;2023-06-26T07:57:02;11.95;;;6.22;;
54977;SDS011;40873;47.522;19.106;2023-06-26T07:59:33;7.97;;;5.85;;
54977;SDS011;40873;47.522;19.106;2023-06-26T08:02:01;8.00;;;5.43;;
54977;SDS011;40873;47.522;19.106;2023-06-26T08:04:29;7.47;;;5.10;;
54977;SDS011;40873;47.522;19.106;2023-06-26T08:06:59;10.95;;;4.80;;
54977;SDS011;40873;47.522;19.106;2023-06-26T08:09:28;9.07;;;5.90;;
54977;SDS011;40873;47.522;19.106;2023-06-26T08:11:56;7.97;;;5.88;;
54977;SDS011;40873;47.522;19.106;2023-06-26T08:14:24;9.02;;;5.72;;
54977;SDS011;40873;47.522;19.106;2023-06-26T08:16:51;7.72;;;5.38;;
54977;SDS011;40873;47.522;19.106;2023-06-26T08:19:18;8.13;;;5.05;;
54977;SDS011;40873;47.522;19.106;2023-06-26T08:21:46;7.72;;;5.25;;
54977;SDS011;40873;47.522;19.106;2023-06-26T08:24:13;7.60;;;5.07;;
54977;SDS011;40873;47.522;19.106;2023-06-26T08:26:44;9.35;;;5.40;;
54977;SDS011;40873;47.522;19.106;2023-06-26T08:29:11;9.07;;;4.82;;
54977;SDS011;40873;47.522;19.106;2023-06-26T08:31:39;10.38;;;5.55;;
54977;SDS011;40873;47.522;19.106;2023-06-26T08:34:07;8.65;;;5.15;;
54977;SDS011;40873;47.522;19.106;2023-06-26T08:36:35;12.05;;;6.10;;
54977;SDS011;40873;47.522;19.106;2023-06-26T08:39:02;8.77;;;5.40;;
54977;SDS011;40873;47.522;19.106;2023-06-26T08:41:31;7.40;;;5.03;;
54977;SDS011;40873;47.522;19.106;2023-06-26T08:43:59;7.35;;;4.78;;
54977;SDS011;40873;47.522;19.106;2023-06-26T08:46:26;9.50;;;4.82;;
54977;SDS011;40873;47.522;19.106;2023-06-26T08:48:55;8.65;;;5.28;;
54977;SDS011;40873;47.522;19.106;2023-06-26T08:51:24;7.65;;;5.30;;
54977;SDS011;40873;47.522;19.106;2023-06-26T08:53:58;10.30;;;5.10;;
54977;SDS011;40873;47.522;19.106;2023-06-26T08:56:28;8.13;;;4.95;;
54977;SDS011;40873;47.522;19.106;2023-06-26T08:58:59;9.95;;;5.38;;
54977;SDS011;40873;47.522;19.106;2023-06-26T09:01:27;10.60;;;5.07;;
54977;SDS011;40873;47.522;19.106;2023-06-26T09:03:55;8.63;;;5.82;;
54977;SDS011;40873;47.522;19.106;2023-06-26T09:06:22;7.80;;;5.10;;
54977;SDS011;40873;47.522;19.106;2023-06-26T09:08:49;6.13;;;4.53;;
54977;SDS011;40873;47.522;19.106;2023-06-26T09:11:16;11.35;;;5.50;;
54977;SDS011;40873;47.522;19.106;2023-06-26T09:13:43;8.68;;;5.15;;
54977;SDS011;40873;47.522;19.106;2023-06-26T09:16:11;9.52;;;5.15;;
54977;SDS011;40873;47.522;19.106;2023-06-26T09:18:40;7.85;;;5.07;;
54977;SDS011;40873;47.522;19.106;2023-06-26T09:21:09;11.23;;;6.32;;
54977;SDS011;40873;47.522;19.106;2023-06-26T09:23:39;7.65;;;4.93;;
54977;SDS011;40873;47.522;19.106;2023-06-26T09:26:06;10.18;;;5.38;;
54977;SDS011;40873;47.522;19.106;2023-06-26T09:28:34;8.63;;;5.68;;
54977;SDS011;40873;47.522;19.106;2023-06-26T09:31:02;9.90;;;5.75;;
54977;SDS011;40873;47.522;19.106;2023-06-26T09:33:34;9.65;;;6.03;;
54977;SDS011;40873;47.522;19.106;2023-06-26T09:36:07;8.43;;;5.40;;
54977;SDS011;40873;47.522;19.106;2023-06-26T09:38:36;7.55;;;4.88;;
54977;SDS011;40873;47.522;19.106;2023-06-26T09:41:03;6.50;;;5.32;;
54977;SDS011;40873;47.522;19.106;2023-06-26T09:43:31;9.20;;;5.55;;
54977;SDS011;40873;47.522;19.106;2023-06-26T09:46:00;8.27;;;5.07;;
54977;SDS011;40873;47.522;19.106;2023-06-26T09:48:27;8.88;;;5.28;;
54977;SDS011;40873;47.522;19.106;2023-06-26T09:50:55;8.93;;;5.00;;
54977;SDS011;40873;47.522;19.106;2023-06-26T09:53:38;7.30;;;5.55;;
54977;SDS011;40873;47.522;19.106;2023-06-26T09:56:15;7.78;;;5.20;;
54977;SDS011;40873;47.522;19.106;2023-06-26T09:58:45;10.05;;;5.35;;
54977;SDS011;40873;47.522;19.106;2023-06-26T10:01:13;7.35;;;5.65;;
54977;SDS011;40873;47.522;19.106;2023-06-26T10:03:41;6.13;;;4.90;;
54977;SDS011;40873;47.522;19.106;2023-06-26T10:06:09;9.13;;;5.05;;
54977;SDS011;40873;47.522;19.106;2023-06-26T10:08:38;9.35;;;5.15;;
54977;SDS011;40873;47.522;19.106;2023-06-26T10:11:07;7.55;;;4.68;;
54977;SDS011;40873;47.522;19.106;2023-06-26T10:13:42;6.60;;;5.10;;
54977;SDS011;40873;47.522;19.106;2023-06-26T10:16:13;7.05;;;4.32;;
54977;SDS011;40873;47.522;19.106;2023-06-26T10:18:53;10.10;;;5.93;;
54977;SDS011;40873;47.522;19.106;2023-06-26T10:21:25;8.88;;;4.82;;
54977;SDS011;40873;47.522;19.106;2023-06-26T10:23:56;7.57;;;4.80;;
54977;SDS011;40873;47.522;19.106;2023-06-26T10:26:24;7.68;;;4.95;;
54977;SDS011;40873;47.522;19.106;2023-06-26T10:28:53;5.53;;;4.07;;
54977;SDS011;40873;47.522;19.106;2023-06-26T10:31:22;8.80;;;5.05;;
54977;SDS011;40873;47.522;19.106;2023-06-26T10:33:52;6.43;;;4.90;;
54977;SDS011;40873;47.522;19.106;2023-06-26T10:36:26;6.32;;;4.95;;
54977;SDS011;40873;47.522;19.106;2023-06-26T10:38:55;7.95;;;5.03;;
54977;SDS011;40873;47.522;19.106;2023-06-26T10:41:24;6.00;;;4.68;;
54977;SDS011;40873;47.522;19.106;2023-06-26T10:46:29;8.57;;;5.80;;
54977;SDS011;40873;47.522;19.106;2023-06-26T10:49:00;9.45;;;5.32;;
54977;SDS011;40873;47.522;19.106;2023-06-26T10:51:28;8.25;;;5.35;;
54977;SDS011;40873;47.522;19.106;2023-06-26T10:53:56;6.65;;;4.60;;
54977;SDS011;40873;47.522;19.106;2023-06-26T10:56:43;9.32;;;5.63;;
54977;SDS011;40873;47.522;19.106;2023-06-26T10:59:16;9.00;;;6.25;;
54977;SDS011;40873;47.522;19.106;2023-06-26T11:01:45;7.25;;;5.22;;
54977;SDS011;40873;47.522;19.106;2023-06-26T11:04:22;8.88;;;4.95;;
54977;SDS011;40873;47.522;19.106;2023-06-26T11:07:25;6.85;;;4.93;;
54977;SDS011;40873;47.522;19.106;2023-06-26T11:10:00;7.10;;;5.13;;
54977;SDS011;40873;47.522;19.106;2023-06-26T11:12:42;8.07;;;4.80;;
54977;SDS011;40873;47.522;19.106;2023-06-26T11:15:14;7.45;;;5.30;;
54977;SDS011;40873;47.522;19.106;2023-06-26T11:17:43;8.85;;;4.63;;
54977;SDS011;40873;47.522;19.106;2023-06-26T11:20:14;6.85;;;5.28;;
54977;SDS011;40873;47.522;19.106;2023-06-26T11:22:45;6.43;;;4.78;;
54977;SDS011;40873;47.522;19.106;2023-06-26T11:25:18;8.63;;;4.85;;
54977;SDS011;40873;47.522;19.106;2023-06-26T11:27:46;5.80;;;4.38;;
54977;SDS011;40873;47.522;19.106;2023-06-26T11:30:23;9.55;;;4.63;;
54977;SDS011;40873;47.522;19.106;2023-06-26T11:32:52;7.45;;;4.90;;
54977;SDS011;40873;47.522;19.106;2023-06-26T11:35:24;6.82;;;4.38;;
54977;SDS011;40873;47.522;19.106;2023-06-26T11:37:58;11.05;;;4.65;;
54977;SDS011;40873;47.522;19.106;2023-06-26T11:40:34;9.07;;;5.10;;
54977;SDS011;40873;47.522;19.106;2023-06-26T11:43:03;7.50;;;4.50;;
54977;SDS011;40873;47.522;19.106;2023-06-26T11:45:31;6.90;;;4.68;;
54977;SDS011;40873;47.522;19.106;2023-06-26T11:47:59;7.38;;;4.82;;
54977;SDS011;40873;47.522;19.106;2023-06-26T11:50:27;6.28;;;4.18;;
54977;SDS011;40873;47.522;19.106;2023-06-26T11:52:55;7.15;;;4.20;;
54977;SDS011;40873;47.522;19.106;2023-06-26T11:55:23;7.35;;;4.53;;
54977;SDS011;40873;47.522;19.106;2023-06-26T11:57:56;7.18;;;4.68;;
54977;SDS011;40873;47.522;19.106;2023-06-26T12:00:23;9.32;;;4.55;;
54977;SDS011;40873;47.522;19.106;2023-06-26T12:02:50;8.05;;;4.72;;
54977;SDS011;40873;47.522;19.106;2023-06-26T12:05:18;6.80;;;3.78;;
54977;SDS011;40873;47.522;19.106;2023-06-26T12:07:47;10.07;;;4.45;;
54977;SDS011;40873;47.522;19.106;2023-06-26T12:10:15;7.68;;;4.13;;
54977;SDS011;40873;47.522;19.106;2023-06-26T12:12:44;5.03;;;4.15;;
54977;SDS011;40873;47.522;19.106;2023-06-26T12:15:13;6.22;;;4.10;;
54977;SDS011;40873;47.522;19.106;2023-06-26T12:17:42;6.32;;;4.72;;
54977;SDS011;40873;47.522;19.106;2023-06-26T12:20:22;8.63;;;4.55;;
54977;SDS011;40873;47.522;19.106;2023-06-26T12:22:52;7.35;;;4.75;;
54977;SDS011;40873;47.522;19.106;2023-06-26T12:25:23;5.93;;;4.47;;
54977;SDS011;40873;47.522;19.106;2023-06-26T12:27:51;12.07;;;5.20;;
54977;SDS011;40873;47.522;19.106;2023-06-26T12:30:18;8.90;;;5.20;;
54977;SDS011;40873;47.522;19.106;2023-06-26T12:32:45;7.03;;;4.80;;
54977;SDS011;40873;47.522;19.106;2023-06-26T12:35:13;7.15;;;4.95;;
54977;SDS011;40873;47.522;19.106;2023-06-26T12:37:42;6.63;;;4.70;;
54977;SDS011;40873;47.522;19.106;2023-06-26T12:40:16;8.82;;;5.05;;
54977;SDS011;40873;47.522;19.106;2023-06-26T12:42:45;5.50;;;4.15;;
54977;SDS011;40873;47.522;19.106;2023-06-26T12:45:12;7.97;;;5.28;;
54977;SDS011;40873;47.522;19.106;2023-06-26T12:48:07;5.82;;;4.57;;
54977;SDS011;40873;47.522;19.106;2023-06-26T12:50:45;6.25;;;4.20;;
54977;SDS011;40873;47.522;19.106;2023-06-26T12:53:12;8.18;;;4.70;;
54977;SDS011;40873;47.522;19.106;2023-06-26T12:55:40;8.45;;;4.53;;
54977;SDS011;40873;47.522;19.106;2023-06-26T12:58:07;8.98;;;4.80;;
54977;SDS011;40873;47.522;19.106;2023-06-26T13:00:36;8.18;;;4.68;;
54977;SDS011;40873;47.522;19.106;2023-06-26T13:03:03;9.45;;;4.25;;
54977;SDS011;40873;47.522;19.106;2023-06-26T13:05:31;5.95;;;4.28;;
54977;SDS011;40873;47.522;19.106;2023-06-26T13:07:58;9.73;;;5.10;;
54977;SDS011;40873;47.522;19.106;2023-06-26T13:10:26;7.63;;;4.80;;
54977;SDS011;40873;47.522;19.106;2023-06-26T13:12:55;7.07;;;4.63;;
54977;SDS011;40873;47.522;19.106;2023-06-26T13:15:22;5.78;;;4.35;;
54977;SDS011;40873;47.522;19.106;2023-06-26T13:17:50;9.55;;;5.25;;
54977;SDS011;40873;47.522;19.106;2023-06-26T13:20:17;9.85;;;5.00;;
54977;SDS011;40873;47.522;19.106;2023-06-26T13:22:44;8.52;;;5.13;;
54977;SDS011;40873;47.522;19.106;2023-06-26T13:25:12;7.25;;;4.97;;
54977;SDS011;40873;47.522;19.106;2023-06-26T13:27:40;5.88;;;4.50;;
54977;SDS011;40873;47.522;19.106;2023-06-26T13:30:07;6.65;;;4.43;;
54977;SDS011;40873;47.522;19.106;2023-06-26T13:32:34;7.18;;;5.03;;
54977;SDS011;40873;47.522;19.106;2023-06-26T13:35:01;8.80;;;5.28;;
54977;SDS011;40873;47.522;19.106;2023-06-26T13:37:31;7.15;;;4.32;;
54977;SDS011;40873;47.522;19.106;2023-06-26T13:39:58;5.50;;;4.50;;
54977;SDS011;40873;47.522;19.106;2023-06-26T13:42:26;9.25;;;5.18;;
54977;SDS011;40873;47.522;19.106;2023-06-26T13:44:53;9.32;;;5.05;;
54977;SDS011;40873;47.522;19.106;2023-06-26T13:47:31;8.40;;;5.07;;
54977;SDS011;40873;47.522;19.106;2023-06-26T13:50:01;11.27;;;4.60;;
54977;SDS011;40873;47.522;19.106;2023-06-26T13:52:28;7.43;;;4.80;;
54977;SDS011;40873;47.522;19.106;2023-06-26T13:54:55;8.93;;;4.63;;
54977;SDS011;40873;47.522;19.106;2023-06-26T13:57:22;9.48;;;4.63;;
54977;SDS011;40873;47.522;19.106;2023-06-26T13:59:49;7.72;;;4.85;;
54977;SDS011;40873;47.522;19.106;2023-06-26T14:02:16;8.88;;;4.78;;
54977;SDS011;40873;47.522;19.106;2023-06-26T14:04:43;6.40;;;5.10;;
54977;SDS011;40873;47.522;19.106;2023-06-26T14:07:11;7.72;;;5.13;;
54977;SDS011;40873;47.522;19.106;2023-06-26T14:09:38;7.32;;;4.95;;
54977;SDS011;40873;47.522;19.106;2023-06-26T14:12:05;6.50;;;4.97;;
54977;SDS011;40873;47.522;19.106;2023-06-26T14:14:33;8.10;;;5.03;;
54977;SDS011;40873;47.522;19.106;2023-06-26T14:17:00;6.93;;;5.10;;
54977;SDS011;40873;47.522;19.106;2023-06-26T14:19:28;8.05;;;4.57;;
54977;SDS011;40873;47.522;19.106;2023-06-26T14:21:55;8.98;;;4.72;;
54977;SDS011;40873;47.522;19.106;2023-06-26T14:24:22;5.97;;;4.57;;
54977;SDS011;40873;47.522;19.106;2023-06-26T14:26:49;6.95;;;4.60;;
54977;SDS011;40873;47.522;19.106;2023-06-26T14:29:16;7.35;;;4.60;;
54977;SDS011;40873;47.522;19.106;2023-06-26T14:31:44;6.47;;;4.65;;
54977;SDS011;40873;47.522;19.106;2023-06-26T14:34:13;9.35;;;6.40;;
54977;SDS011;40873;47.522;19.106;2023-06-26T14:36:40;7.32;;;4.93;;
54977;SDS011;40873;47.522;19.106;2023-06-26T14:39:07;6.82;;;4.53;;
54977;SDS011;40873;47.522;19.106;2023-06-26T14:41:34;8.30;;;4.35;;
54977;SDS011;40873;47.522;19.106;2023-06-26T14:44:01;6.38;;;4.55;;
54977;SDS011;40873;47.522;19.106;2023-06-26T14:46:29;8.32;;;5.93;;